Time;durP1;ratioP1;P1;durP2;ratioP2;P2;SDS_P1;SDS_P2;PMS_P1;PMS_P2;Temp;Humidity;BMP_temperature;BMP_pressure;BME280_temperature;BME280_humidity;BME280_pressure;Samples;Min_cycle;Max_cycle;Signal;HPM_P1;HPM_P2
2024/03/12 00:00:56;;;;;;;77.03;60.75;;;8.10;99.90;;;;;;5025674;28;20057;-76
2024/03/12 00:03:22;;;;;;;68.45;57.40;;;8.10;99.90;;;;;;5030622;28;20585;-76
2024/03/12 00:05:48;;;;;;;80.20;60.38;;;8.10;99.90;;;;;;5027622;28;20044;-75
2024/03/12 00:08:14;;;;;;;77.68;59.95;;;8.10;99.90;;;;;;5038714;28;20507;-76
2024/03/12 00:10:40;;;;;;;76.75;61.60;;;8.10;99.90;;;;;;5013400;28;20119;-76
2024/03/12 00:13:07;;;;;;;79.65;62.80;;;8.10;99.90;;;;;;5026385;28;20095;-75
2024/03/12 00:15:35;;;;;;;80.35;61.53;;;8.10;99.90;;;;;;5013188;28;20115;-76
2024/03/12 00:18:05;;;;;;;70.95;58.85;;;8.10;99.90;;;;;;5030925;28;20103;-76
2024/03/12 00:20:33;;;;;;;75.43;60.33;;;8.10;99.90;;;;;;5028707;28;20726;-75
2024/03/12 00:23:00;;;;;;;77.63;60.75;;;8.10;99.90;;;;;;5024705;28;20044;-76
2024/03/12 00:25:28;;;;;;;81.28;63.35;;;8.10;99.90;;;;;;5011101;28;20055;-76
2024/03/12 00:27:57;;;;;;;73.75;59.40;;;8.10;99.90;;;;;;5022949;28;20045;-76
2024/03/12 00:30:28;;;;;;;68.07;58.05;;;8.10;99.90;;;;;;5012234;28;20037;-76
2024/03/12 00:32:56;;;;;;;77.72;60.30;;;8.20;99.90;;;;;;5029347;28;20076;-76
2024/03/12 00:35:43;;;;;;;87.93;64.93;;;8.10;99.90;;;;;;5040394;28;20170;-76
2024/03/12 00:38:09;;;;;;;74.35;58.38;;;8.10;99.90;;;;;;5028348;28;20049;-76
2024/03/12 00:40:36;;;;;;;76.35;60.75;;;8.10;99.90;;;;;;5007858;28;20037;-76
2024/03/12 00:43:05;;;;;;;73.05;59.00;;;8.10;99.90;;;;;;5028056;28;20181;-76
2024/03/12 00:45:37;;;;;;;75.65;62.05;;;8.10;99.90;;;;;;5026688;28;20517;-76
2024/03/12 00:48:12;;;;;;;79.78;62.88;;;8.10;99.90;;;;;;5024234;28;20045;-76
2024/03/12 00:50:39;;;;;;;84.35;63.70;;;8.10;99.90;;;;;;5011988;28;20040;-76
2024/03/12 00:53:05;;;;;;;93.53;69.25;;;8.10;99.90;;;;;;5029111;28;20108;-76
2024/03/12 00:55:31;;;;;;;86.78;68.60;;;8.10;99.90;;;;;;5027997;28;20057;-76
2024/03/12 00:57:57;;;;;;;82.50;65.90;;;8.10;99.90;;;;;;5030025;28;20163;-76
2024/03/12 01:00:33;;;;;;;88.00;67.03;;;8.10;99.90;;;;;;5011500;28;20045;-76
2024/03/12 01:03:00;;;;;;;94.70;69.40;;;8.10;99.90;;;;;;5023991;28;20055;-76
2024/03/12 01:05:30;;;;;;;92.32;70.68;;;8.10;99.90;;;;;;5029029;28;20137;-76
2024/03/12 01:08:03;;;;;;;94.15;70.60;;;8.10;99.90;;;;;;5026255;28;20058;-75
2024/03/12 01:10:33;;;;;;;83.32;67.32;;;8.10;99.90;;;;;;5024223;28;20101;-76
2024/03/12 01:13:01;;;;;;;91.22;66.43;;;8.10;99.90;;;;;;5026843;28;20044;-76
2024/03/12 01:15:27;;;;;;;90.00;70.63;;;8.10;99.90;;;;;;5010547;28;20513;-75
2024/03/12 01:17:54;;;;;;;94.97;73.07;;;8.10;99.90;;;;;;5025360;28;20049;-76
2024/03/12 01:20:20;;;;;;;97.07;72.95;;;8.00;99.90;;;;;;5004694;28;20079;-76
2024/03/12 01:22:47;;;;;;;100.93;75.45;;;8.00;99.90;;;;;;5026595;28;20609;-76
2024/03/12 01:25:13;;;;;;;93.85;71.90;;;8.00;99.90;;;;;;5004330;28;20071;-76
2024/03/12 01:27:41;;;;;;;108.15;77.05;;;8.00;99.90;;;;;;5016769;28;20491;-75
2024/03/12 01:30:14;;;;;;;102.70;75.00;;;8.00;99.90;;;;;;5024785;28;20044;-76
2024/03/12 01:32:47;;;;;;;104.22;77.10;;;8.00;99.90;;;;;;5025572;28;20089;-75
2024/03/12 01:35:13;;;;;;;104.95;73.72;;;8.00;99.90;;;;;;5022129;28;20049;-76
2024/03/12 01:37:43;;;;;;;95.95;70.75;;;8.00;99.90;;;;;;5006244;28;20056;-76
2024/03/12 01:40:19;;;;;;;96.95;69.88;;;8.00;99.90;;;;;;5009707;28;20052;-76
2024/03/12 01:42:53;;;;;;;94.38;68.97;;;8.00;99.90;;;;;;5010961;28;20037;-76
2024/03/12 01:45:24;;;;;;;96.13;71.72;;;8.00;99.90;;;;;;5022542;28;20496;-76
2024/03/12 01:47:52;;;;;;;115.22;79.45;;;8.00;99.90;;;;;;5010529;28;20463;-76
2024/03/12 01:50:19;;;;;;;99.40;73.53;;;8.00;99.90;;;;;;5008635;28;20361;-76
2024/03/12 01:52:46;;;;;;;105.40;76.97;;;8.00;99.90;;;;;;5024933;28;20110;-76
2024/03/12 01:55:14;;;;;;;105.65;77.43;;;8.00;99.90;;;;;;5021095;28;20364;-76
2024/03/12 01:57:47;;;;;;;112.88;79.53;;;8.00;99.90;;;;;;5022695;28;20110;-76
2024/03/12 02:00:13;;;;;;;98.80;72.20;;;8.00;99.90;;;;;;5008723;28;20357;-76
2024/03/12 02:02:44;;;;;;;85.72;66.18;;;8.00;99.90;;;;;;5025740;28;20044;-76
2024/03/12 02:05:10;;;;;;;113.82;79.00;;;8.00;99.90;;;;;;5026620;28;20045;-76
2024/03/12 02:07:46;;;;;;;113.43;79.15;;;8.00;99.90;;;;;;5009680;28;20052;-76
2024/03/12 02:10:18;;;;;;;89.60;69.72;;;8.00;99.90;;;;;;5025923;28;20121;-76
2024/03/12 02:12:44;;;;;;;98.05;71.57;;;8.10;99.90;;;;;;5023148;28;20063;-75
2024/03/12 02:15:17;;;;;;;100.22;76.13;;;8.00;99.90;;;;;;5025586;28;20072;-76
2024/03/12 02:17:44;;;;;;;87.25;67.90;;;8.10;99.90;;;;;;5002456;28;20049;-76
2024/03/12 02:20:10;;;;;;;89.13;69.50;;;8.10;99.90;;;;;;5009402;28;20160;-76
2024/03/12 02:22:40;;;;;;;96.75;73.72;;;8.10;99.90;;;;;;5025289;28;20166;-76
2024/03/12 02:25:10;;;;;;;101.70;75.07;;;8.00;99.90;;;;;;5024527;28;21382;-76
2024/03/12 02:27:37;;;;;;;96.82;74.15;;;8.00;99.90;;;;;;5027153;28;20056;-76
2024/03/12 02:30:04;;;;;;;90.15;66.57;;;8.00;99.90;;;;;;5037566;28;20291;-76
2024/03/12 02:32:32;;;;;;;102.53;75.00;;;8.00;99.90;;;;;;5007874;28;20044;-77
2024/03/12 02:34:58;;;;;;;106.30;75.05;;;8.00;99.90;;;;;;5023634;28;20126;-76
2024/03/12 02:37:24;;;;;;;94.18;73.72;;;8.00;99.90;;;;;;5005990;28;20364;-77
2024/03/12 02:39:50;;;;;;;111.85;79.28;;;8.00;99.90;;;;;;5024566;28;20507;-76
2024/03/12 02:42:15;;;;;;;112.43;78.55;;;8.00;99.90;;;;;;5009447;28;20503;-77
2024/03/12 02:44:41;;;;;;;98.10;71.30;;;8.00;99.90;;;;;;5022936;28;20496;-76
2024/03/12 02:47:07;;;;;;;101.13;73.40;;;8.00;99.90;;;;;;5008633;28;20059;-76
2024/03/12 02:49:35;;;;;;;96.88;71.28;;;8.00;99.90;;;;;;5010760;28;20091;-76
2024/03/12 02:52:01;;;;;;;105.38;72.05;;;8.00;99.90;;;;;;5026381;28;20041;-76
2024/03/12 02:54:27;;;;;;;111.07;77.05;;;7.90;99.90;;;;;;5017366;28;20056;-76
2024/03/12 02:56:53;;;;;;;103.57;76.38;;;8.00;99.90;;;;;;5014555;28;20046;-77
2024/03/12 02:59:20;;;;;;;110.32;77.75;;;7.90;99.90;;;;;;5014538;28;20396;-76
2024/03/12 03:01:46;;;;;;;126.60;83.22;;;8.00;99.90;;;;;;5034255;28;20110;-76
2024/03/12 03:04:12;;;;;;;99.78;74.60;;;7.90;99.90;;;;;;5024173;28;20053;-76
2024/03/12 03:06:38;;;;;;;116.78;78.90;;;7.90;99.90;;;;;;5014635;28;20449;-76
2024/03/12 03:09:07;;;;;;;106.55;78.25;;;7.90;99.90;;;;;;5031403;28;20135;-76
2024/03/12 03:11:32;;;;;;;103.30;74.70;;;7.90;99.90;;;;;;5018631;28;20043;-76
2024/03/12 03:14:00;;;;;;;116.82;81.13;;;7.90;99.90;;;;;;5028813;28;20037;-76
2024/03/12 03:16:27;;;;;;;117.82;79.13;;;7.90;99.90;;;;;;5021038;28;20498;-77
2024/03/12 03:18:54;;;;;;;122.45;81.28;;;7.90;99.90;;;;;;5030463;28;20048;-76
2024/03/12 03:21:20;;;;;;;151.52;90.03;;;7.90;99.90;;;;;;5030191;28;20574;-76
2024/03/12 03:23:46;;;;;;;112.65;79.07;;;7.90;99.90;;;;;;5031275;28;20534;-76
2024/03/12 03:26:12;;;;;;;126.18;84.22;;;7.80;99.90;;;;;;5025316;28;20186;-77
2024/03/12 03:28:38;;;;;;;140.63;87.40;;;7.90;99.90;;;;;;5016906;28;20391;-77
2024/03/12 03:31:04;;;;;;;123.20;83.13;;;7.90;99.90;;;;;;5015040;28;20117;-76
2024/03/12 03:33:31;;;;;;;138.10;87.32;;;7.80;99.90;;;;;;5038161;28;21362;-76
2024/03/12 03:35:57;;;;;;;129.65;85.57;;;7.90;99.90;;;;;;5028674;28;20126;-76
2024/03/12 03:38:27;;;;;;;181.27;95.35;;;7.80;99.90;;;;;;5027334;28;20037;-76
2024/03/12 03:40:53;;;;;;;131.43;85.57;;;7.80;99.90;;;;;;5015470;28;20044;-76
2024/03/12 03:43:19;;;;;;;154.65;91.57;;;7.80;99.90;;;;;;5016421;28;20044;-76
2024/03/12 03:45:45;;;;;;;190.00;95.47;;;7.90;99.90;;;;;;5027778;28;20391;-76
2024/03/12 03:48:11;;;;;;;146.82;89.93;;;7.80;99.90;;;;;;5015413;28;20049;-76
2024/03/12 03:50:37;;;;;;;174.43;94.30;;;7.90;99.90;;;;;;5029652;28;20044;-76
2024/03/12 03:53:03;;;;;;;174.65;94.70;;;7.90;99.90;;;;;;5018880;28;20718;-76
2024/03/12 03:55:28;;;;;;;211.73;102.82;;;7.80;99.90;;;;;;5017224;28;20048;-76
2024/03/12 03:57:57;;;;;;;182.07;96.72;;;7.90;99.90;;;;;;5031352;28;20542;-76
2024/03/12 04:00:28;;;;;;;175.70;96.88;;;7.90;99.90;;;;;;5032492;28;20045;-77
2024/03/12 04:02:54;;;;;;;154.55;94.00;;;7.90;99.90;;;;;;5013984;28;20048;-77
2024/03/12 04:05:23;;;;;;;161.27;93.15;;;7.90;99.90;;;;;;5029702;28;20083;-77
2024/03/12 04:07:49;;;;;;;113.63;79.90;;;7.90;99.90;;;;;;5026724;28;20451;-77
2024/03/12 04:10:15;;;;;;;125.00;84.65;;;7.90;99.90;;;;;;5012501;28;20115;-76
2024/03/12 04:12:45;;;;;;;119.97;82.75;;;7.90;99.90;;;;;;5027689;28;20076;-77
2024/03/12 04:15:12;;;;;;;122.80;84.75;;;7.90;99.90;;;;;;5024812;28;20045;-77
2024/03/12 04:17:38;;;;;;;145.15;91.57;;;7.90;99.90;;;;;;5013896;28;20041;-76
2024/03/12 04:20:11;;;;;;;119.45;83.28;;;7.90;99.90;;;;;;5009934;28;21208;-76
2024/03/12 04:22:43;;;;;;;143.38;89.75;;;7.90;99.90;;;;;;5013063;28;20056;-76
2024/03/12 04:25:09;;;;;;;154.20;93.53;;;7.90;99.90;;;;;;5009260;28;20677;-77
2024/03/12 04:27:38;;;;;;;156.75;95.13;;;7.90;99.90;;;;;;5025939;28;20990;-76
2024/03/12 04:30:11;;;;;;;159.65;92.65;;;8.00;99.90;;;;;;5017872;28;20060;-77
2024/03/12 04:32:38;;;;;;;141.57;90.53;;;8.00;99.90;;;;;;5022995;28;20117;-76
2024/03/12 04:35:04;;;;;;;139.73;89.95;;;7.90;99.90;;;;;;5016140;28;20382;-76
2024/03/12 04:37:34;;;;;;;161.38;92.97;;;8.00;99.90;;;;;;5012770;28;20128;-77
2024/03/12 04:40:06;;;;;;;154.70;91.88;;;8.00;99.90;;;;;;5009031;28;20530;-76
2024/03/12 04:42:33;;;;;;;131.27;87.18;;;8.00;99.90;;;;;;5027308;28;20106;-77
2024/03/12 04:44:59;;;;;;;160.27;94.47;;;7.90;99.90;;;;;;5026970;28;20053;-76
2024/03/12 04:47:25;;;;;;;138.43;90.55;;;7.90;99.90;;;;;;5028728;28;20123;-76
2024/03/12 04:49:53;;;;;;;132.73;86.93;;;7.90;99.90;;;;;;5026527;28;20041;-76
2024/03/12 04:52:19;;;;;;;139.63;89.60;;;8.00;99.90;;;;;;5022471;28;20376;-76
2024/03/12 04:54:46;;;;;;;106.97;76.53;;;7.90;99.90;;;;;;5013830;28;20044;-77
2024/03/12 04:57:11;;;;;;;100.50;77.07;;;7.90;99.90;;;;;;5023164;28;20279;-76
2024/03/12 04:59:37;;;;;;;109.70;79.30;;;7.90;99.90;;;;;;5010582;28;20049;-77
2024/03/12 05:02:03;;;;;;;105.07;79.20;;;7.90;99.90;;;;;;5022495;28;20504;-77
2024/03/12 05:04:29;;;;;;;101.75;74.78;;;7.90;99.90;;;;;;5021929;28;20508;-77
2024/03/12 05:06:55;;;;;;;110.80;80.90;;;7.90;99.90;;;;;;5025988;28;20040;-76
2024/03/12 05:09:23;;;;;;;89.03;68.93;;;7.90;99.90;;;;;;5006365;28;20041;-76
2024/03/12 05:11:49;;;;;;;95.57;72.03;;;7.90;99.90;;;;;;5024553;28;20052;-77
2024/03/12 05:14:15;;;;;;;102.20;77.25;;;7.90;99.90;;;;;;5008689;28;20037;-76
2024/03/12 05:16:41;;;;;;;92.22;70.60;;;7.90;99.90;;;;;;5005727;28;20603;-76
2024/03/12 05:19:10;;;;;;;99.03;72.78;;;7.80;99.90;;;;;;5027579;28;20085;-77
2024/03/12 05:21:36;;;;;;;97.68;74.22;;;7.80;99.90;;;;;;5013275;28;20457;-76
2024/03/12 05:24:03;;;;;;;96.57;71.20;;;7.80;99.90;;;;;;5025945;28;20096;-76
2024/03/12 05:26:31;;;;;;;93.30;70.57;;;7.80;99.90;;;;;;5025659;28;20068;-77
2024/03/12 05:28:58;;;;;;;98.35;71.55;;;7.80;99.90;;;;;;5026061;28;20044;-77
2024/03/12 05:31:38;;;;;;;108.47;75.45;;;7.80;99.90;;;;;;5010662;28;20127;-77
2024/03/12 05:34:14;;;;;;;88.30;69.25;;;7.80;99.90;;;;;;5009210;28;20475;-76
2024/03/12 05:36:48;;;;;;;91.28;68.38;;;7.80;99.90;;;;;;5021501;28;20052;-76
2024/03/12 05:39:47;;;;;;;97.90;71.38;;;7.80;99.90;;;;;;5012119;28;20048;-76
2024/03/12 05:50:27;;;;;;;93.85;70.07;;;7.80;99.90;;;;;;5020617;28;20053;-77
2024/03/12 05:52:54;;;;;;;86.15;67.40;;;7.80;99.90;;;;;;4998173;28;20552;-77
2024/03/12 05:55:21;;;;;;;91.25;68.18;;;7.80;99.90;;;;;;5027238;28;20517;-76
2024/03/12 05:57:46;;;;;;;89.18;66.93;;;7.80;99.90;;;;;;5008915;28;20064;-77
2024/03/12 06:00:13;;;;;;;93.40;69.07;;;7.80;99.90;;;;;;5026510;28;20037;-77
2024/03/12 06:02:39;;;;;;;94.53;68.18;;;7.80;99.90;;;;;;5024959;28;20080;-77
2024/03/12 06:05:06;;;;;;;96.32;69.05;;;7.80;99.90;;;;;;5010310;28;20049;-77
2024/03/12 06:07:33;;;;;;;97.60;71.68;;;7.80;99.90;;;;;;5006472;28;20041;-76
2024/03/12 06:09:58;;;;;;;85.72;67.10;;;7.80;99.90;;;;;;5024420;28;20048;-76
2024/03/12 06:12:24;;;;;;;102.80;69.32;;;7.80;99.90;;;;;;5025379;28;20514;-76
2024/03/12 06:14:50;;;;;;;100.13;70.07;;;7.80;99.90;;;;;;5020134;28;20478;-75
2024/03/12 06:17:16;;;;;;;96.32;67.78;;;7.80;99.90;;;;;;5022586;28;20091;-76
2024/03/12 06:19:42;;;;;;;96.82;66.78;;;7.80;99.90;;;;;;5011602;28;20041;-76
2024/03/12 06:22:08;;;;;;;86.97;65.45;;;7.80;99.90;;;;;;5019965;28;20090;-75
2024/03/12 06:24:39;;;;;;;89.50;64.95;;;7.80;99.90;;;;;;5021041;28;20503;-75
2024/03/12 06:27:05;;;;;;;88.53;65.72;;;7.70;99.90;;;;;;5023380;28;20467;-76
2024/03/12 06:29:31;;;;;;;89.20;65.88;;;7.70;99.90;;;;;;5023140;28;20403;-76
2024/03/12 06:31:57;;;;;;;90.03;65.50;;;7.70;99.90;;;;;;5022815;28;20045;-75
2024/03/12 06:34:26;;;;;;;78.80;62.30;;;7.80;99.90;;;;;;5009457;28;20060;-76
2024/03/12 06:36:57;;;;;;;94.00;68.28;;;7.70;99.90;;;;;;5022244;28;20160;-75
2024/03/12 06:39:31;;;;;;;90.70;65.88;;;7.80;99.90;;;;;;5024614;28;20526;-76
2024/03/12 06:42:07;;;;;;;81.40;62.28;;;7.80;99.90;;;;;;5020318;28;20045;-76
2024/03/12 06:44:40;;;;;;;96.65;67.80;;;7.80;99.90;;;;;;5005072;28;20450;-75
2024/03/12 06:47:07;;;;;;;94.65;67.93;;;7.80;99.90;;;;;;5023051;28;20070;-76
2024/03/12 06:49:33;;;;;;;96.72;69.55;;;7.80;99.90;;;;;;5024860;28;20045;-75
2024/03/12 06:52:00;;;;;;;95.68;67.40;;;7.80;99.90;;;;;;5023056;28;20029;-76
2024/03/12 06:54:32;;;;;;;87.05;61.75;;;7.80;99.90;;;;;;5025635;28;20052;-76
2024/03/12 06:56:58;;;;;;;96.28;70.15;;;7.80;99.90;;;;;;5022415;28;20419;-76
2024/03/12 06:59:24;;;;;;;101.50;70.03;;;7.80;99.90;;;;;;5022506;28;20045;-77
2024/03/12 07:01:53;;;;;;;95.65;67.15;;;7.80;99.90;;;;;;5024774;28;20843;-77
2024/03/12 07:04:23;;;;;;;97.28;67.07;;;7.80;99.90;;;;;;5024772;28;20056;-77
2024/03/12 07:06:51;;;;;;;105.50;71.20;;;7.80;99.90;;;;;;5010099;28;20049;-78
2024/03/12 07:09:26;;;;;;;110.03;73.57;;;7.80;99.90;;;;;;5023879;28;20045;-77
2024/03/12 07:11:54;;;;;;;106.35;70.30;;;7.80;99.90;;;;;;5026396;28;20757;-77
2024/03/12 07:14:27;;;;;;;114.57;74.43;;;7.90;99.90;;;;;;5025602;28;20123;-77
2024/03/12 07:16:54;;;;;;;101.63;72.15;;;7.80;99.90;;;;;;5023663;28;20092;-77
2024/03/12 07:19:22;;;;;;;110.10;72.95;;;7.90;99.90;;;;;;5012014;28;20053;-77
2024/03/12 07:21:49;;;;;;;116.50;74.88;;;7.90;99.90;;;;;;5020148;28;20059;-77
2024/03/12 07:24:15;;;;;;;110.53;72.90;;;7.90;99.90;;;;;;5027450;28;20056;-78
2024/03/12 07:26:46;;;;;;;109.95;74.97;;;7.90;99.90;;;;;;5024224;28;20573;-77
2024/03/12 07:29:11;;;;;;;117.00;76.13;;;7.90;99.90;;;;;;5011740;28;20462;-77
2024/03/12 07:31:37;;;;;;;125.57;77.32;;;7.90;99.90;;;;;;5021367;28;20045;-78
2024/03/12 07:34:05;;;;;;;124.55;78.30;;;7.90;99.90;;;;;;5040732;28;20091;-78
2024/03/12 07:36:35;;;;;;;115.28;73.28;;;7.90;99.90;;;;;;5008407;28;20045;-78
2024/03/12 07:39:24;;;;;;;145.10;82.17;;;7.90;99.90;;;;;;5013331;28;20048;-77
2024/03/12 07:41:54;;;;;;;148.27;83.80;;;7.90;99.90;;;;;;5030588;28;20048;-78
2024/03/12 07:44:20;;;;;;;;;;;7.90;99.90;;;;;;5029404;28;20048;-77
2024/03/12 07:46:47;;;;;;;179.57;87.22;;;7.90;99.90;;;;;;5031871;28;19975;-77
2024/03/12 07:49:18;;;;;;;170.77;84.35;;;7.90;99.90;;;;;;5028254;28;20037;-77
2024/03/12 07:51:44;;;;;;;179.13;89.05;;;7.90;99.90;;;;;;5012221;28;20388;-78
2024/03/12 07:54:10;;;;;;;159.75;85.57;;;7.90;99.90;;;;;;5012430;28;20043;-77
2024/03/12 07:56:36;;;;;;;188.23;90.30;;;7.90;99.90;;;;;;5029966;28;20087;-77
2024/03/12 07:59:04;;;;;;;178.07;89.57;;;8.00;99.90;;;;;;5010411;28;20392;-77
2024/03/12 08:01:30;;;;;;;217.55;90.45;;;8.00;99.90;;;;;;5029641;28;20052;-78
2024/03/12 08:03:56;;;;;;;206.40;92.57;;;8.00;99.90;;;;;;5012647;28;20502;-77
2024/03/12 08:06:23;;;;;;;177.85;87.95;;;8.00;99.90;;;;;;5026241;28;20053;-78
2024/03/12 08:08:48;;;;;;;146.32;79.03;;;8.00;99.90;;;;;;5029247;28;20048;-77
2024/03/12 08:11:18;;;;;;;189.75;85.93;;;8.00;99.90;;;;;;5012403;28;20395;-78
2024/03/12 08:13:47;;;;;;;176.93;82.85;;;8.00;99.90;;;;;;5023390;28;20526;-78
2024/03/12 08:16:15;;;;;;;169.95;83.55;;;8.00;99.90;;;;;;5013936;28;20036;-77
2024/03/12 08:18:41;;;;;;;155.25;80.07;;;8.00;99.90;;;;;;5011278;28;20084;-77
2024/03/12 08:21:08;;;;;;;137.52;74.80;;;8.00;99.90;;;;;;5011918;28;20068;-77
2024/03/12 08:23:34;;;;;;;136.80;73.82;;;8.00;99.90;;;;;;5027209;28;20049;-77
2024/03/12 08:26:01;;;;;;;139.05;73.15;;;8.00;99.90;;;;;;5020073;28;20052;-78
2024/03/12 08:28:28;;;;;;;123.68;68.13;;;8.00;99.90;;;;;;5026436;28;20076;-77
2024/03/12 08:30:54;;;;;;;114.35;65.45;;;8.10;99.90;;;;;;5028202;28;20087;-77
2024/03/12 08:33:20;;;;;;;106.35;63.38;;;8.10;99.90;;;;;;5022062;28;20657;-77
2024/03/12 08:35:46;;;;;;;107.63;63.95;;;8.10;99.90;;;;;;5026894;28;20390;-78
2024/03/12 08:38:12;;;;;;;96.30;59.58;;;8.10;99.90;;;;;;5026068;28;20432;-77
2024/03/12 08:40:38;;;;;;;100.30;59.58;;;8.10;99.90;;;;;;5027402;28;20045;-77
2024/03/12 08:43:03;;;;;;;96.93;58.90;;;8.10;99.90;;;;;;5025581;28;20516;-77
2024/03/12 08:45:29;;;;;;;84.32;54.83;;;8.20;99.90;;;;;;5028910;28;20051;-77
2024/03/12 08:47:55;;;;;;;88.47;54.58;;;8.20;99.90;;;;;;5023558;28;20546;-77
2024/03/12 08:50:22;;;;;;;90.32;53.53;;;8.20;99.90;;;;;;5031588;28;20052;-77
2024/03/12 08:52:47;;;;;;;77.53;47.00;;;8.20;99.90;;;;;;5026739;28;20052;-78
2024/03/12 08:55:13;;;;;;;74.03;44.50;;;8.20;99.90;;;;;;5032333;28;20051;-78
2024/03/12 08:57:39;;;;;;;66.75;42.75;;;8.20;99.90;;;;;;5010561;28;20079;-78
2024/03/12 09:00:11;;;;;;;57.80;38.55;;;8.20;99.90;;;;;;5013126;28;20069;-77
2024/03/12 09:02:38;;;;;;;58.08;38.92;;;8.20;99.90;;;;;;5026242;28;20045;-77
2024/03/12 09:05:09;;;;;;;53.88;37.33;;;8.20;99.90;;;;;;5028459;28;20033;-78
2024/03/12 09:07:37;;;;;;;;;;;8.20;99.90;;;;;;5011473;28;20053;-78
2024/03/12 09:10:11;;;;;;;55.00;35.70;;;8.20;99.90;;;;;;5030474;28;19927;-77
2024/03/12 09:12:37;;;;;;;48.25;34.67;;;8.10;99.90;;;;;;5010320;28;20571;-78
2024/03/12 09:15:03;;;;;;;47.58;34.33;;;8.20;99.90;;;;;;5010453;28;20052;-77
2024/03/12 09:17:30;;;;;;;45.65;31.80;;;8.20;99.90;;;;;;5012144;28;20043;-77
2024/03/12 09:19:57;;;;;;;38.47;30.75;;;8.20;99.90;;;;;;5025814;28;20380;-78
2024/03/12 09:22:23;;;;;;;35.97;30.35;;;8.20;99.90;;;;;;5007737;28;20462;-78
2024/03/12 09:24:50;;;;;;;35.33;28.27;;;8.10;99.90;;;;;;5013608;28;20590;-77
2024/03/12 09:27:16;;;;;;;33.35;27.73;;;8.20;99.90;;;;;;5026685;28;20048;-78
2024/03/12 09:29:42;;;;;;;33.90;26.40;;;8.20;99.90;;;;;;5026555;28;20036;-77
2024/03/12 09:32:08;;;;;;;32.55;26.92;;;8.20;99.90;;;;;;5024874;28;20495;-77
2024/03/12 09:34:36;;;;;;;32.30;27.58;;;8.20;99.90;;;;;;5023362;28;20091;-78
2024/03/12 09:37:02;;;;;;;29.00;25.35;;;8.20;99.90;;;;;;5011210;28;20041;-77
2024/03/12 09:39:30;;;;;;;26.17;23.27;;;8.20;99.90;;;;;;5023465;28;20041;-77
2024/03/12 09:41:57;;;;;;;27.70;24.58;;;8.20;99.90;;;;;;5027507;28;20044;-77
2024/03/12 09:44:23;;;;;;;25.50;22.40;;;8.20;99.90;;;;;;5020733;28;20053;-77
2024/03/12 09:46:51;;;;;;;26.42;23.25;;;8.30;99.90;;;;;;5027991;28;20053;-77
2024/03/12 09:49:19;;;;;;;24.58;21.90;;;8.30;99.90;;;;;;5010577;28;20091;-77
2024/03/12 09:51:45;;;;;;;25.50;22.52;;;8.40;99.90;;;;;;5025195;28;20392;-77
2024/03/12 09:54:11;;;;;;;25.50;22.80;;;8.40;99.90;;;;;;5022634;28;20033;-76
2024/03/12 09:56:39;;;;;;;26.35;23.55;;;8.50;99.90;;;;;;5023243;28;20045;-77
2024/03/12 09:59:07;;;;;;;26.48;23.52;;;8.60;99.90;;;;;;5023866;28;20045;-77
2024/03/12 10:01:34;;;;;;;25.17;21.67;;;8.70;99.90;;;;;;5027844;28;20045;-78
2024/03/12 10:04:00;;;;;;;27.40;22.38;;;8.70;99.90;;;;;;5008389;28;20051;-77
2024/03/12 10:06:28;;;;;;;23.80;20.90;;;8.70;99.90;;;;;;5027307;28;20049;-77
2024/03/12 10:08:59;;;;;;;26.80;22.05;;;8.80;99.90;;;;;;5025924;28;20052;-77
2024/03/12 10:11:25;;;;;;;25.90;21.50;;;8.70;99.90;;;;;;5009579;28;20118;-77
2024/03/12 10:14:03;;;;;;;28.50;22.33;;;8.70;99.90;;;;;;5008359;28;20472;-77
2024/03/12 10:16:32;;;;;;;27.50;22.17;;;8.70;99.90;;;;;;5028574;28;20120;-77
2024/03/12 10:19:14;;;;;;;29.38;23.27;;;8.60;99.90;;;;;;5009502;28;20098;-77
2024/03/12 10:21:41;;;;;;;27.95;23.08;;;8.60;99.90;;;;;;5020654;28;20048;-76
2024/03/12 10:24:18;;;;;;;26.80;21.70;;;8.60;99.90;;;;;;5026432;28;20044;-77
2024/03/12 10:26:45;;;;;;;28.88;23.45;;;8.50;99.90;;;;;;5011099;28;20049;-77
2024/03/12 10:29:13;;;;;;;31.75;23.52;;;8.50;99.90;;;;;;5010492;28;20041;-77
2024/03/12 10:31:43;;;;;;;28.70;24.33;;;8.50;99.90;;;;;;5008641;28;20089;-78
2024/03/12 10:34:17;;;;;;;32.35;24.13;;;8.50;99.90;;;;;;5028099;28;20056;-77
2024/03/12 10:36:44;;;;;;;31.67;23.80;;;8.50;99.90;;;;;;5010180;28;20108;-77
2024/03/12 10:39:28;;;;;;;35.58;25.42;;;8.50;99.90;;;;;;5011211;28;20495;-79
2024/03/12 10:41:59;;;;;;;33.25;24.80;;;8.50;99.90;;;;;;5008573;28;20053;-78
2024/03/12 10:44:29;;;;;;;38.75;27.40;;;8.40;99.90;;;;;;5023060;28;20057;-78
2024/03/12 10:46:58;;;;;;;35.22;25.60;;;8.40;99.90;;;;;;5027077;28;20056;-78
2024/03/12 10:49:25;;;;;;;39.58;27.52;;;8.40;99.90;;;;;;5020989;28;20056;-77
2024/03/12 10:51:55;;;;;;;38.38;27.75;;;8.40;99.90;;;;;;5023778;28;20398;-78
2024/03/12 10:54:22;;;;;;;47.92;30.92;;;8.30;99.90;;;;;;5022903;28;20057;-78
2024/03/12 10:56:50;;;;;;;51.75;31.92;;;8.30;99.90;;;;;;5025352;28;20052;-77
2024/03/12 10:59:18;;;;;;;49.40;32.42;;;8.30;99.90;;;;;;5025705;28;20059;-78
2024/03/12 11:01:44;;;;;;;51.15;31.80;;;8.30;99.90;;;;;;5024651;28;20048;-78
2024/03/12 11:04:12;;;;;;;53.38;31.70;;;8.30;99.90;;;;;;5025343;28;20569;-78
2024/03/12 11:06:42;;;;;;;54.33;33.10;;;8.30;99.90;;;;;;5008993;28;20304;-77
2024/03/12 11:09:11;;;;;;;53.05;32.90;;;8.30;99.90;;;;;;5009457;28;20033;-78
2024/03/12 11:11:38;;;;;;;51.42;33.70;;;8.20;99.90;;;;;;5026936;28;20537;-76
2024/03/12 11:14:05;;;;;;;52.20;34.20;;;8.20;99.90;;;;;;5026359;28;20057;-78
2024/03/12 11:16:36;;;;;;;48.30;31.90;;;8.30;99.90;;;;;;5031836;28;20049;-77
2024/03/12 11:19:23;;;;;;;52.70;32.78;;;8.30;99.90;;;;;;5026158;28;20464;-78
2024/03/12 11:21:50;;;;;;;47.92;32.05;;;8.20;99.90;;;;;;5034326;28;20037;-78
2024/03/12 11:24:42;;;;;;;51.08;32.28;;;8.20;99.90;;;;;;5030094;28;20052;-77
2024/03/12 11:27:18;;;;;;;52.92;33.58;;;8.20;99.90;;;;;;5029170;28;20041;-78
2024/03/12 11:30:03;;;;;;;52.45;33.47;;;8.20;99.90;;;;;;5027306;28;20562;-78
2024/03/12 11:32:40;;;;;;;50.20;33.97;;;8.20;99.90;;;;;;5011788;28;20048;-78
2024/03/12 11:35:27;;;;;;;55.70;34.55;;;8.30;99.90;;;;;;5026686;28;20097;-77
2024/03/12 11:37:59;;;;;;;57.80;35.20;;;8.30;99.90;;;;;;5025186;28;20084;-78
2024/03/12 11:40:29;;;;;;;52.35;35.28;;;8.30;99.90;;;;;;5013020;28;20048;-78
2024/03/12 11:42:57;;;;;;;52.28;35.08;;;8.30;99.90;;;;;;5013227;28;20040;-78
2024/03/12 11:45:46;;;;;;;57.55;35.33;;;8.30;99.90;;;;;;5026927;28;20040;-78
2024/03/12 11:48:36;;;;;;;51.58;34.30;;;8.30;99.90;;;;;;5012366;28;20051;-78
2024/03/12 11:51:04;;;;;;;57.42;35.35;;;8.30;99.90;;;;;;5023491;28;20045;-78
2024/03/12 11:53:35;;;;;;;50.53;32.80;;;8.30;99.90;;;;;;5025303;28;20453;-78
2024/03/12 11:56:10;;;;;;;50.97;30.55;;;8.30;99.90;;;;;;5025191;28;20080;-78
2024/03/12 11:58:47;;;;;;;45.50;31.33;;;8.30;99.90;;;;;;5011568;28;20342;-78
2024/03/12 12:01:22;;;;;;;43.65;28.73;;;8.20;99.90;;;;;;5023171;28;20042;-78
2024/03/12 12:03:59;;;;;;;43.42;30.55;;;8.30;99.90;;;;;;5028578;28;20052;-78
2024/03/12 12:06:30;;;;;;;46.00;28.35;;;8.30;99.90;;;;;;5028085;28;20049;-78
2024/03/12 12:09:05;;;;;;;45.10;29.73;;;8.30;99.90;;;;;;5012490;28;20049;-78
2024/03/12 12:11:32;;;;;;;47.10;28.38;;;8.30;99.90;;;;;;5027684;28;20060;-78
2024/03/12 12:13:59;;;;;;;42.15;27.90;;;8.30;99.90;;;;;;5027150;28;20374;-78
2024/03/12 12:16:25;;;;;;;49.63;29.13;;;8.40;99.90;;;;;;5013806;28;20060;-78
2024/03/12 12:18:51;;;;;;;44.00;27.90;;;8.40;99.90;;;;;;5023533;28;20102;-78
2024/03/12 12:21:18;;;;;;;41.35;26.30;;;8.40;99.90;;;;;;5030659;28;20052;-78
2024/03/12 12:23:46;;;;;;;37.33;24.60;;;8.40;99.90;;;;;;5009387;28;20412;-78
2024/03/12 12:26:16;;;;;;;43.38;25.98;;;8.40;99.90;;;;;;5014292;28;20560;-78
2024/03/12 12:28:42;;;;;;;42.43;26.53;;;8.40;99.90;;;;;;5027820;28;20879;-78
2024/03/12 12:31:11;;;;;;;45.00;26.73;;;8.40;99.90;;;;;;5024048;28;20326;-78
2024/03/12 12:33:39;;;;;;;40.63;25.13;;;8.50;99.90;;;;;;5026211;28;20052;-78
2024/03/12 12:36:13;;;;;;;41.33;26.48;;;8.50;99.90;;;;;;5012483;28;20041;-77
2024/03/12 12:38:42;;;;;;;45.92;27.52;;;8.50;99.90;;;;;;5013614;28;20061;-78
2024/03/12 12:41:11;;;;;;;42.72;26.85;;;8.40;99.90;;;;;;5012348;28;20033;-78
2024/03/12 12:43:39;;;;;;;42.92;26.25;;;8.50;99.90;;;;;;5024480;28;20053;-77
2024/03/12 12:46:05;;;;;;;40.60;25.20;;;8.40;99.90;;;;;;5024285;28;20380;-77
2024/03/12 12:48:40;;;;;;;40.03;25.92;;;8.40;99.90;;;;;;5011577;28;20061;-78